sensor_id;sensor_type;location;lat;lon;timestamp;temperature;humidity
53422;DHT22;39319;52.944;5.928;2023-08-20T00:01:40;18.50;98.20
53422;DHT22;39319;52.944;5.928;2023-08-20T00:04:06;18.50;98.30
53422;DHT22;39319;52.944;5.928;2023-08-20T00:06:33;18.40;98.40
53422;DHT22;39319;52.944;5.928;2023-08-20T00:08:59;18.50;98.60
53422;DHT22;39319;52.944;5.928;2023-08-20T00:11:25;18.50;98.50
53422;DHT22;39319;52.944;5.928;2023-08-20T00:13:51;18.50;98.40
53422;DHT22;39319;52.944;5.928;2023-08-20T00:16:17;18.40;98.20
53422;DHT22;39319;52.944;5.928;2023-08-20T00:18:43;18.50;98.20
53422;DHT22;39319;52.944;5.928;2023-08-20T00:21:09;18.50;98.30
53422;DHT22;39319;52.944;5.928;2023-08-20T00:23:36;18.40;98.40
53422;DHT22;39319;52.944;5.928;2023-08-20T00:26:02;18.40;98.60
53422;DHT22;39319;52.944;5.928;2023-08-20T00:28:28;18.40;98.40
53422;DHT22;39319;52.944;5.928;2023-08-20T00:30:54;18.40;98.30
53422;DHT22;39319;52.944;5.928;2023-08-20T00:33:22;18.40;98.30
53422;DHT22;39319;52.944;5.928;2023-08-20T00:35:48;18.30;98.30
53422;DHT22;39319;52.944;5.928;2023-08-20T00:38:13;18.30;98.30
53422;DHT22;39319;52.944;5.928;2023-08-20T00:40:39;18.30;98.50
53422;DHT22;39319;52.944;5.928;2023-08-20T00:43:05;18.20;98.40
53422;DHT22;39319;52.944;5.928;2023-08-20T00:45:32;18.20;98.40
53422;DHT22;39319;52.944;5.928;2023-08-20T00:47:57;18.20;98.40
53422;DHT22;39319;52.944;5.928;2023-08-20T00:50:24;18.20;98.50
53422;DHT22;39319;52.944;5.928;2023-08-20T00:52:50;18.10;98.40
53422;DHT22;39319;52.944;5.928;2023-08-20T00:55:16;18.10;98.40
53422;DHT22;39319;52.944;5.928;2023-08-20T00:57:42;18.10;98.50
53422;DHT22;39319;52.944;5.928;2023-08-20T01:00:08;18.10;98.40
53422;DHT22;39319;52.944;5.928;2023-08-20T01:02:37;18.10;98.60
53422;DHT22;39319;52.944;5.928;2023-08-20T01:05:04;18.10;98.50
53422;DHT22;39319;52.944;5.928;2023-08-20T01:07:47;18.10;98.50
53422;DHT22;39319;52.944;5.928;2023-08-20T01:10:42;18.10;98.60
53422;DHT22;39319;52.944;5.928;2023-08-20T01:13:11;18.10;98.60
53422;DHT22;39319;52.944;5.928;2023-08-20T01:15:37;18.10;98.60
53422;DHT22;39319;52.944;5.928;2023-08-20T01:18:03;18.10;98.50
53422;DHT22;39319;52.944;5.928;2023-08-20T01:20:51;18.10;98.50
53422;DHT22;39319;52.944;5.928;2023-08-20T01:23:57;18.00;98.50
53422;DHT22;39319;52.944;5.928;2023-08-20T01:29:35;18.00;98.60
53422;DHT22;39319;52.944;5.928;2023-08-20T01:32:03;18.00;98.70
53422;DHT22;39319;52.944;5.928;2023-08-20T01:34:29;18.00;98.70
53422;DHT22;39319;52.944;5.928;2023-08-20T01:36:58;18.00;98.80
53422;DHT22;39319;52.944;5.928;2023-08-20T01:39:26;18.00;98.80
53422;DHT22;39319;52.944;5.928;2023-08-20T01:41:52;18.00;99.00
53422;DHT22;39319;52.944;5.928;2023-08-20T01:44:18;18.00;98.90
53422;DHT22;39319;52.944;5.928;2023-08-20T01:46:44;18.00;98.80
53422;DHT22;39319;52.944;5.928;2023-08-20T01:49:09;18.00;98.90
53422;DHT22;39319;52.944;5.928;2023-08-20T01:51:35;17.90;98.80
53422;DHT22;39319;52.944;5.928;2023-08-20T01:54:04;17.90;98.80
53422;DHT22;39319;52.944;5.928;2023-08-20T01:56:30;17.90;99.00
53422;DHT22;39319;52.944;5.928;2023-08-20T01:58:56;18.00;98.90
53422;DHT22;39319;52.944;5.928;2023-08-20T02:01:21;17.90;99.00
53422;DHT22;39319;52.944;5.928;2023-08-20T02:03:47;18.00;99.30
53422;DHT22;39319;52.944;5.928;2023-08-20T02:06:13;17.90;99.20
53422;DHT22;39319;52.944;5.928;2023-08-20T02:08:38;17.90;99.20
53422;DHT22;39319;52.944;5.928;2023-08-20T02:11:04;18.00;99.10
53422;DHT22;39319;52.944;5.928;2023-08-20T02:13:31;18.00;99.00
53422;DHT22;39319;52.944;5.928;2023-08-20T02:15:58;18.00;98.90
53422;DHT22;39319;52.944;5.928;2023-08-20T02:18:24;17.90;98.90
53422;DHT22;39319;52.944;5.928;2023-08-20T02:20:50;17.90;98.90
53422;DHT22;39319;52.944;5.928;2023-08-20T02:23:15;17.90;99.00
53422;DHT22;39319;52.944;5.928;2023-08-20T02:25:42;17.90;99.00
53422;DHT22;39319;52.944;5.928;2023-08-20T02:28:10;17.80;98.80
53422;DHT22;39319;52.944;5.928;2023-08-20T02:30:43;17.80;98.90
53422;DHT22;39319;52.944;5.928;2023-08-20T02:33:09;17.80;99.00
53422;DHT22;39319;52.944;5.928;2023-08-20T02:35:38;17.80;98.80
53422;DHT22;39319;52.944;5.928;2023-08-20T02:38:04;17.80;98.90
53422;DHT22;39319;52.944;5.928;2023-08-20T02:40:30;17.80;98.90
53422;DHT22;39319;52.944;5.928;2023-08-20T02:42:58;17.80;98.80
53422;DHT22;39319;52.944;5.928;2023-08-20T02:45:24;17.70;98.80
53422;DHT22;39319;52.944;5.928;2023-08-20T02:47:50;17.70;98.80
53422;DHT22;39319;52.944;5.928;2023-08-20T02:50:16;17.70;98.90
53422;DHT22;39319;52.944;5.928;2023-08-20T02:52:42;17.70;98.90
53422;DHT22;39319;52.944;5.928;2023-08-20T02:55:08;17.70;98.80
53422;DHT22;39319;52.944;5.928;2023-08-20T02:57:34;17.60;98.80
53422;DHT22;39319;52.944;5.928;2023-08-20T03:00:00;17.60;99.00
53422;DHT22;39319;52.944;5.928;2023-08-20T03:02:26;17.60;99.00
53422;DHT22;39319;52.944;5.928;2023-08-20T03:04:51;17.50;98.90
53422;DHT22;39319;52.944;5.928;2023-08-20T03:07:18;17.60;99.10
53422;DHT22;39319;52.944;5.928;2023-08-20T03:09:44;17.50;99.00
53422;DHT22;39319;52.944;5.928;2023-08-20T03:12:10;17.60;99.10
53422;DHT22;39319;52.944;5.928;2023-08-20T03:14:36;17.60;99.00
53422;DHT22;39319;52.944;5.928;2023-08-20T03:17:01;17.50;99.10
53422;DHT22;39319;52.944;5.928;2023-08-20T03:19:32;17.50;99.00
53422;DHT22;39319;52.944;5.928;2023-08-20T03:21:58;17.50;99.10
53422;DHT22;39319;52.944;5.928;2023-08-20T03:24:24;17.50;99.00
53422;DHT22;39319;52.944;5.928;2023-08-20T03:26:50;17.40;99.00
53422;DHT22;39319;52.944;5.928;2023-08-20T03:29:15;17.50;99.10
53422;DHT22;39319;52.944;5.928;2023-08-20T03:31:41;17.50;99.10
53422;DHT22;39319;52.944;5.928;2023-08-20T03:34:07;17.40;99.10
53422;DHT22;39319;52.944;5.928;2023-08-20T03:36:35;17.40;99.00
53422;DHT22;39319;52.944;5.928;2023-08-20T03:39:00;17.50;99.10
53422;DHT22;39319;52.944;5.928;2023-08-20T03:41:26;17.40;99.10
53422;DHT22;39319;52.944;5.928;2023-08-20T03:43:54;17.50;99.20
53422;DHT22;39319;52.944;5.928;2023-08-20T03:46:19;17.40;99.10
53422;DHT22;39319;52.944;5.928;2023-08-20T03:48:45;17.40;99.30
53422;DHT22;39319;52.944;5.928;2023-08-20T03:51:11;17.40;99.20
53422;DHT22;39319;52.944;5.928;2023-08-20T03:53:36;17.40;99.20
53422;DHT22;39319;52.944;5.928;2023-08-20T03:56:02;17.40;99.40
53422;DHT22;39319;52.944;5.928;2023-08-20T03:58:28;17.40;99.40
53422;DHT22;39319;52.944;5.928;2023-08-20T04:00:53;17.40;99.40
53422;DHT22;39319;52.944;5.928;2023-08-20T04:03:19;17.40;99.30
53422;DHT22;39319;52.944;5.928;2023-08-20T04:05:45;17.40;99.30
53422;DHT22;39319;52.944;5.928;2023-08-20T04:08:11;17.40;99.20
53422;DHT22;39319;52.944;5.928;2023-08-20T04:10:43;17.40;99.40
53422;DHT22;39319;52.944;5.928;2023-08-20T04:13:09;17.40;99.30
53422;DHT22;39319;52.944;5.928;2023-08-20T04:15:35;17.40;99.30
53422;DHT22;39319;52.944;5.928;2023-08-20T04:18:01;17.40;99.40
53422;DHT22;39319;52.944;5.928;2023-08-20T04:20:29;17.40;99.40
53422;DHT22;39319;52.944;5.928;2023-08-20T04:22:55;17.50;99.60
53422;DHT22;39319;52.944;5.928;2023-08-20T04:25:20;17.50;99.80
53422;DHT22;39319;52.944;5.928;2023-08-20T04:27:46;17.50;99.90
53422;DHT22;39319;52.944;5.928;2023-08-20T04:30:12;17.50;99.90
53422;DHT22;39319;52.944;5.928;2023-08-20T04:32:38;17.60;99.90
53422;DHT22;39319;52.944;5.928;2023-08-20T04:35:04;17.60;99.80
53422;DHT22;39319;52.944;5.928;2023-08-20T04:37:29;17.50;99.80
53422;DHT22;39319;52.944;5.928;2023-08-20T04:39:55;17.50;99.70
53422;DHT22;39319;52.944;5.928;2023-08-20T04:42:21;17.50;99.70
53422;DHT22;39319;52.944;5.928;2023-08-20T04:44:46;17.60;99.90
53422;DHT22;39319;52.944;5.928;2023-08-20T04:47:12;17.50;99.80
53422;DHT22;39319;52.944;5.928;2023-08-20T04:49:38;17.50;99.90
53422;DHT22;39319;52.944;5.928;2023-08-20T04:52:06;17.60;99.90
53422;DHT22;39319;52.944;5.928;2023-08-20T04:54:32;17.50;99.90
53422;DHT22;39319;52.944;5.928;2023-08-20T04:56:58;17.60;99.90
53422;DHT22;39319;52.944;5.928;2023-08-20T04:59:24;17.50;99.90
53422;DHT22;39319;52.944;5.928;2023-08-20T05:01:49;17.60;99.90
53422;DHT22;39319;52.944;5.928;2023-08-20T05:04:15;17.50;99.90
53422;DHT22;39319;52.944;5.928;2023-08-20T05:06:41;17.50;99.80
53422;DHT22;39319;52.944;5.928;2023-08-20T05:09:06;17.50;99.80
53422;DHT22;39319;52.944;5.928;2023-08-20T05:11:32;17.50;99.80
53422;DHT22;39319;52.944;5.928;2023-08-20T05:13:59;17.50;99.80
53422;DHT22;39319;52.944;5.928;2023-08-20T05:16:24;17.60;99.90
53422;DHT22;39319;52.944;5.928;2023-08-20T05:18:53;17.50;99.90
53422;DHT22;39319;52.944;5.928;2023-08-20T05:21:18;17.50;99.90
53422;DHT22;39319;52.944;5.928;2023-08-20T05:23:44;17.50;99.90
53422;DHT22;39319;52.944;5.928;2023-08-20T05:26:12;17.60;99.90
53422;DHT22;39319;52.944;5.928;2023-08-20T05:28:42;17.50;99.90
53422;DHT22;39319;52.944;5.928;2023-08-20T05:31:08;17.50;99.90
53422;DHT22;39319;52.944;5.928;2023-08-20T05:33:36;17.60;99.90
53422;DHT22;39319;52.944;5.928;2023-08-20T05:36:02;17.60;99.90
53422;DHT22;39319;52.944;5.928;2023-08-20T05:38:27;17.60;99.90
53422;DHT22;39319;52.944;5.928;2023-08-20T05:40:53;17.60;99.90
53422;DHT22;39319;52.944;5.928;2023-08-20T05:43:19;17.70;99.90
53422;DHT22;39319;52.944;5.928;2023-08-20T05:45:44;17.70;99.90
53422;DHT22;39319;52.944;5.928;2023-08-20T05:48:10;17.70;99.90
53422;DHT22;39319;52.944;5.928;2023-08-20T05:50:36;17.70;99.90
53422;DHT22;39319;52.944;5.928;2023-08-20T05:53:01;17.70;99.90
53422;DHT22;39319;52.944;5.928;2023-08-20T05:55:27;17.80;99.90
53422;DHT22;39319;52.944;5.928;2023-08-20T05:57:53;17.80;99.90
53422;DHT22;39319;52.944;5.928;2023-08-20T06:00:18;17.80;99.90
53422;DHT22;39319;52.944;5.928;2023-08-20T06:02:44;17.80;99.90
53422;DHT22;39319;52.944;5.928;2023-08-20T06:05:10;17.90;99.90
53422;DHT22;39319;52.944;5.928;2023-08-20T06:07:36;17.90;99.90
53422;DHT22;39319;52.944;5.928;2023-08-20T06:10:01;18.00;99.90
53422;DHT22;39319;52.944;5.928;2023-08-20T06:12:28;18.00;99.90
53422;DHT22;39319;52.944;5.928;2023-08-20T06:14:54;18.10;99.90
53422;DHT22;39319;52.944;5.928;2023-08-20T06:17:19;18.00;99.90
53422;DHT22;39319;52.944;5.928;2023-08-20T06:19:45;18.10;99.90
53422;DHT22;39319;52.944;5.928;2023-08-20T06:22:11;18.20;99.90
53422;DHT22;39319;52.944;5.928;2023-08-20T06:24:36;18.20;99.90
53422;DHT22;39319;52.944;5.928;2023-08-20T06:27:03;18.20;99.90
53422;DHT22;39319;52.944;5.928;2023-08-20T06:29:28;18.20;99.90
53422;DHT22;39319;52.944;5.928;2023-08-20T06:31:54;18.30;99.90
53422;DHT22;39319;52.944;5.928;2023-08-20T06:34:20;18.40;99.90
53422;DHT22;39319;52.944;5.928;2023-08-20T06:36:45;18.40;99.90
53422;DHT22;39319;52.944;5.928;2023-08-20T06:39:11;18.40;99.90
53422;DHT22;39319;52.944;5.928;2023-08-20T06:41:37;18.50;99.90
53422;DHT22;39319;52.944;5.928;2023-08-20T06:44:05;18.60;99.90
53422;DHT22;39319;52.944;5.928;2023-08-20T06:46:31;18.70;99.90
53422;DHT22;39319;52.944;5.928;2023-08-20T06:48:56;18.80;99.90
53422;DHT22;39319;52.944;5.928;2023-08-20T06:51:22;18.80;99.90
53422;DHT22;39319;52.944;5.928;2023-08-20T06:53:49;18.90;99.90
53422;DHT22;39319;52.944;5.928;2023-08-20T06:56:15;18.90;99.90
53422;DHT22;39319;52.944;5.928;2023-08-20T06:58:42;19.00;99.90
53422;DHT22;39319;52.944;5.928;2023-08-20T07:01:08;19.00;99.90
53422;DHT22;39319;52.944;5.928;2023-08-20T07:03:38;19.10;99.90
53422;DHT22;39319;52.944;5.928;2023-08-20T07:06:04;19.20;99.90
53422;DHT22;39319;52.944;5.928;2023-08-20T07:08:30;19.30;99.90
53422;DHT22;39319;52.944;5.928;2023-08-20T07:10:56;19.40;99.90
53422;DHT22;39319;52.944;5.928;2023-08-20T07:13:22;19.40;99.90
53422;DHT22;39319;52.944;5.928;2023-08-20T07:15:48;19.50;99.90
53422;DHT22;39319;52.944;5.928;2023-08-20T07:18:15;19.60;99.90
53422;DHT22;39319;52.944;5.928;2023-08-20T07:20:44;19.70;99.90
53422;DHT22;39319;52.944;5.928;2023-08-20T07:23:10;19.80;99.90
53422;DHT22;39319;52.944;5.928;2023-08-20T07:25:37;19.80;99.90
53422;DHT22;39319;52.944;5.928;2023-08-20T07:28:04;19.90;99.90
53422;DHT22;39319;52.944;5.928;2023-08-20T07:30:30;19.90;99.90
53422;DHT22;39319;52.944;5.928;2023-08-20T07:32:56;19.90;99.90
53422;DHT22;39319;52.944;5.928;2023-08-20T07:35:22;20.10;99.90
53422;DHT22;39319;52.944;5.928;2023-08-20T07:37:47;20.20;99.90
53422;DHT22;39319;52.944;5.928;2023-08-20T07:40:13;20.20;99.90
53422;DHT22;39319;52.944;5.928;2023-08-20T07:42:40;20.30;99.90
53422;DHT22;39319;52.944;5.928;2023-08-20T07:45:07;20.40;99.90
53422;DHT22;39319;52.944;5.928;2023-08-20T07:47:36;20.60;99.90
53422;DHT22;39319;52.944;5.928;2023-08-20T07:50:03;20.60;99.90
53422;DHT22;39319;52.944;5.928;2023-08-20T07:52:28;20.60;99.90
53422;DHT22;39319;52.944;5.928;2023-08-20T07:54:54;20.70;99.90
53422;DHT22;39319;52.944;5.928;2023-08-20T07:57:20;20.80;99.90
53422;DHT22;39319;52.944;5.928;2023-08-20T07:59:46;20.90;99.90
53422;DHT22;39319;52.944;5.928;2023-08-20T08:02:11;20.90;99.90
53422;DHT22;39319;52.944;5.928;2023-08-20T08:04:37;21.10;99.90
53422;DHT22;39319;52.944;5.928;2023-08-20T08:07:03;21.10;99.90
53422;DHT22;39319;52.944;5.928;2023-08-20T08:09:32;21.20;99.90
53422;DHT22;39319;52.944;5.928;2023-08-20T08:11:58;21.30;99.90
53422;DHT22;39319;52.944;5.928;2023-08-20T08:14:24;21.40;99.90
53422;DHT22;39319;52.944;5.928;2023-08-20T08:16:50;21.40;99.90
53422;DHT22;39319;52.944;5.928;2023-08-20T08:19:16;21.50;99.90
53422;DHT22;39319;52.944;5.928;2023-08-20T08:21:43;21.50;99.90
53422;DHT22;39319;52.944;5.928;2023-08-20T08:24:11;21.60;99.90
53422;DHT22;39319;52.944;5.928;2023-08-20T08:26:37;21.70;99.90
53422;DHT22;39319;52.944;5.928;2023-08-20T08:29:03;21.80;99.80
53422;DHT22;39319;52.944;5.928;2023-08-20T08:31:29;21.90;99.40
53422;DHT22;39319;52.944;5.928;2023-08-20T08:33:55;22.00;99.00
53422;DHT22;39319;52.944;5.928;2023-08-20T08:36:23;22.00;98.90
53422;DHT22;39319;52.944;5.928;2023-08-20T08:38:52;22.00;98.70
53422;DHT22;39319;52.944;5.928;2023-08-20T08:41:22;22.10;98.50
53422;DHT22;39319;52.944;5.928;2023-08-20T08:43:51;22.10;98.40
53422;DHT22;39319;52.944;5.928;2023-08-20T08:46:17;22.20;98.40
53422;DHT22;39319;52.944;5.928;2023-08-20T08:48:45;22.20;98.40
53422;DHT22;39319;52.944;5.928;2023-08-20T08:51:12;22.30;98.30
53422;DHT22;39319;52.944;5.928;2023-08-20T08:53:38;22.40;98.30
53422;DHT22;39319;52.944;5.928;2023-08-20T08:56:04;22.30;98.60
53422;DHT22;39319;52.944;5.928;2023-08-20T08:58:32;22.40;98.60
53422;DHT22;39319;52.944;5.928;2023-08-20T09:00:58;22.50;98.50
53422;DHT22;39319;52.944;5.928;2023-08-20T09:03:24;22.50;98.00
53422;DHT22;39319;52.944;5.928;2023-08-20T09:05:59;22.60;97.60
53422;DHT22;39319;52.944;5.928;2023-08-20T09:08:27;22.60;97.90
53422;DHT22;39319;52.944;5.928;2023-08-20T09:10:55;22.70;97.40
53422;DHT22;39319;52.944;5.928;2023-08-20T09:15:58;22.70;97.40
53422;DHT22;39319;52.944;5.928;2023-08-20T09:18:24;22.80;97.40
53422;DHT22;39319;52.944;5.928;2023-08-20T09:20:50;22.80;97.10
53422;DHT22;39319;52.944;5.928;2023-08-20T09:23:16;23.00;97.00
53422;DHT22;39319;52.944;5.928;2023-08-20T09:25:43;23.10;97.10
53422;DHT22;39319;52.944;5.928;2023-08-20T09:28:09;23.30;97.20
53422;DHT22;39319;52.944;5.928;2023-08-20T09:30:35;23.40;96.30
53422;DHT22;39319;52.944;5.928;2023-08-20T09:33:09;23.60;95.80
53422;DHT22;39319;52.944;5.928;2023-08-20T09:35:39;23.80;95.60
53422;DHT22;39319;52.944;5.928;2023-08-20T09:38:13;23.80;95.70
53422;DHT22;39319;52.944;5.928;2023-08-20T09:40:41;23.90;95.70
53422;DHT22;39319;52.944;5.928;2023-08-20T09:43:09;24.10;95.80
53422;DHT22;39319;52.944;5.928;2023-08-20T09:45:37;24.30;95.40
53422;DHT22;39319;52.944;5.928;2023-08-20T09:48:05;24.40;94.80
53422;DHT22;39319;52.944;5.928;2023-08-20T09:50:35;24.50;94.70
53422;DHT22;39319;52.944;5.928;2023-08-20T09:53:27;24.60;94.20
53422;DHT22;39319;52.944;5.928;2023-08-20T09:56:01;24.70;93.80
53422;DHT22;39319;52.944;5.928;2023-08-20T09:58:31;24.90;93.60
53422;DHT22;39319;52.944;5.928;2023-08-20T10:00:57;25.00;93.70
53422;DHT22;39319;52.944;5.928;2023-08-20T10:03:23;25.10;93.80
53422;DHT22;39319;52.944;5.928;2023-08-20T10:05:51;25.30;93.20
53422;DHT22;39319;52.944;5.928;2023-08-20T10:08:18;25.30;93.00
53422;DHT22;39319;52.944;5.928;2023-08-20T10:10:44;25.40;93.30
53422;DHT22;39319;52.944;5.928;2023-08-20T10:13:10;25.50;93.40
53422;DHT22;39319;52.944;5.928;2023-08-20T10:15:38;25.70;93.20
53422;DHT22;39319;52.944;5.928;2023-08-20T10:18:04;25.80;93.30
53422;DHT22;39319;52.944;5.928;2023-08-20T10:20:30;26.00;93.10
53422;DHT22;39319;52.944;5.928;2023-08-20T10:23:00;26.10;92.90
53422;DHT22;39319;52.944;5.928;2023-08-20T10:25:29;26.20;93.20
53422;DHT22;39319;52.944;5.928;2023-08-20T10:28:11;26.50;92.80
53422;DHT22;39319;52.944;5.928;2023-08-20T10:30:38;26.70;92.80
53422;DHT22;39319;52.944;5.928;2023-08-20T10:33:24;26.90;92.10
53422;DHT22;39319;52.944;5.928;2023-08-20T10:35:50;26.90;92.20
53422;DHT22;39319;52.944;5.928;2023-08-20T10:38:16;27.10;91.80
53422;DHT22;39319;52.944;5.928;2023-08-20T10:41:04;27.20;92.90
53422;DHT22;39319;52.944;5.928;2023-08-20T10:48:39;27.50;91.80
53422;DHT22;39319;52.944;5.928;2023-08-20T10:51:14;27.60;91.20
53422;DHT22;39319;52.944;5.928;2023-08-20T10:53:42;27.50;91.40
53422;DHT22;39319;52.944;5.928;2023-08-20T10:56:17;27.50;90.80
53422;DHT22;39319;52.944;5.928;2023-08-20T10:58:46;27.60;91.00
53422;DHT22;39319;52.944;5.928;2023-08-20T11:01:20;27.70;90.70
53422;DHT22;39319;52.944;5.928;2023-08-20T11:03:47;27.70;90.90
53422;DHT22;39319;52.944;5.928;2023-08-20T11:06:14;27.80;90.70
53422;DHT22;39319;52.944;5.928;2023-08-20T11:08:41;27.80;91.10
53422;DHT22;39319;52.944;5.928;2023-08-20T11:11:07;27.80;90.90
53422;DHT22;39319;52.944;5.928;2023-08-20T11:13:34;27.60;90.50
53422;DHT22;39319;52.944;5.928;2023-08-20T11:16:01;27.60;91.20
53422;DHT22;39319;52.944;5.928;2023-08-20T11:18:27;27.70;90.90
53422;DHT22;39319;52.944;5.928;2023-08-20T11:20:54;27.90;90.70
53422;DHT22;39319;52.944;5.928;2023-08-20T11:23:21;27.90;90.50
53422;DHT22;39319;52.944;5.928;2023-08-20T11:25:47;27.80;90.30
53422;DHT22;39319;52.944;5.928;2023-08-20T11:28:13;27.70;90.10
53422;DHT22;39319;52.944;5.928;2023-08-20T11:30:39;27.70;90.00
53422;DHT22;39319;52.944;5.928;2023-08-20T11:33:05;27.60;90.70
53422;DHT22;39319;52.944;5.928;2023-08-20T11:35:35;27.80;90.60
53422;DHT22;39319;52.944;5.928;2023-08-20T11:38:02;27.90;90.10
53422;DHT22;39319;52.944;5.928;2023-08-20T11:40:28;28.10;90.10
53422;DHT22;39319;52.944;5.928;2023-08-20T11:42:54;28.20;89.60
53422;DHT22;39319;52.944;5.928;2023-08-20T11:45:20;28.40;89.30
53422;DHT22;39319;52.944;5.928;2023-08-20T11:47:45;28.50;89.00
53422;DHT22;39319;52.944;5.928;2023-08-20T11:50:11;28.60;88.80
53422;DHT22;39319;52.944;5.928;2023-08-20T11:52:37;28.70;88.30
53422;DHT22;39319;52.944;5.928;2023-08-20T11:55:05;28.80;87.50
53422;DHT22;39319;52.944;5.928;2023-08-20T11:57:31;28.80;86.80
53422;DHT22;39319;52.944;5.928;2023-08-20T12:00:05;28.90;87.90
53422;DHT22;39319;52.944;5.928;2023-08-20T12:02:34;29.10;87.70
53422;DHT22;39319;52.944;5.928;2023-08-20T12:05:00;29.20;87.10
53422;DHT22;39319;52.944;5.928;2023-08-20T12:07:26;29.30;87.60
53422;DHT22;39319;52.944;5.928;2023-08-20T12:09:53;29.40;86.80
53422;DHT22;39319;52.944;5.928;2023-08-20T12:12:20;29.50;85.80
53422;DHT22;39319;52.944;5.928;2023-08-20T12:14:47;29.60;87.10
53422;DHT22;39319;52.944;5.928;2023-08-20T12:17:16;29.70;85.40
53422;DHT22;39319;52.944;5.928;2023-08-20T12:19:42;29.60;85.70
53422;DHT22;39319;52.944;5.928;2023-08-20T12:22:07;29.70;85.00
53422;DHT22;39319;52.944;5.928;2023-08-20T12:24:34;29.70;85.20
53422;DHT22;39319;52.944;5.928;2023-08-20T12:26:59;29.80;85.00
53422;DHT22;39319;52.944;5.928;2023-08-20T12:29:25;29.80;85.20
53422;DHT22;39319;52.944;5.928;2023-08-20T12:31:51;29.90;83.30
53422;DHT22;39319;52.944;5.928;2023-08-20T12:34:17;29.90;84.40
53422;DHT22;39319;52.944;5.928;2023-08-20T12:36:43;29.90;83.50
53422;DHT22;39319;52.944;5.928;2023-08-20T12:39:08;29.90;83.80
53422;DHT22;39319;52.944;5.928;2023-08-20T12:41:34;29.90;84.50
53422;DHT22;39319;52.944;5.928;2023-08-20T12:44:02;29.90;84.10
53422;DHT22;39319;52.944;5.928;2023-08-20T12:46:28;29.90;83.80
53422;DHT22;39319;52.944;5.928;2023-08-20T12:48:54;29.90;84.60
53422;DHT22;39319;52.944;5.928;2023-08-20T12:51:19;30.00;83.70
53422;DHT22;39319;52.944;5.928;2023-08-20T12:53:45;30.00;84.20
53422;DHT22;39319;52.944;5.928;2023-08-20T12:56:11;30.10;84.00
53422;DHT22;39319;52.944;5.928;2023-08-20T12:58:37;30.10;84.20
53422;DHT22;39319;52.944;5.928;2023-08-20T13:01:03;30.10;82.90
53422;DHT22;39319;52.944;5.928;2023-08-20T13:03:29;30.00;82.70
53422;DHT22;39319;52.944;5.928;2023-08-20T13:05:55;30.00;83.70
53422;DHT22;39319;52.944;5.928;2023-08-20T13:08:24;30.00;84.20
53422;DHT22;39319;52.944;5.928;2023-08-20T13:10:55;30.10;84.50
53422;DHT22;39319;52.944;5.928;2023-08-20T13:13:22;30.20;83.00
53422;DHT22;39319;52.944;5.928;2023-08-20T13:15:52;30.30;81.90
53422;DHT22;39319;52.944;5.928;2023-08-20T13:18:18;30.20;83.60
53422;DHT22;39319;52.944;5.928;2023-08-20T13:20:44;30.30;83.50
53422;DHT22;39319;52.944;5.928;2023-08-20T13:23:10;30.20;82.60
53422;DHT22;39319;52.944;5.928;2023-08-20T13:25:36;30.10;83.40
53422;DHT22;39319;52.944;5.928;2023-08-20T13:28:02;30.10;84.00
53422;DHT22;39319;52.944;5.928;2023-08-20T13:30:28;30.20;84.30
53422;DHT22;39319;52.944;5.928;2023-08-20T13:32:54;30.20;82.10
53422;DHT22;39319;52.944;5.928;2023-08-20T13:35:20;30.10;83.10
53422;DHT22;39319;52.944;5.928;2023-08-20T13:37:46;30.20;82.10
53422;DHT22;39319;52.944;5.928;2023-08-20T13:40:11;30.10;83.10
53422;DHT22;39319;52.944;5.928;2023-08-20T13:42:37;30.20;81.10
53422;DHT22;39319;52.944;5.928;2023-08-20T13:45:03;30.10;82.00
53422;DHT22;39319;52.944;5.928;2023-08-20T13:47:29;30.00;82.70
53422;DHT22;39319;52.944;5.928;2023-08-20T13:49:55;30.10;81.70
53422;DHT22;39319;52.944;5.928;2023-08-20T13:52:21;30.10;82.60
53422;DHT22;39319;52.944;5.928;2023-08-20T13:54:47;30.20;82.70
53422;DHT22;39319;52.944;5.928;2023-08-20T13:57:12;30.20;81.50
53422;DHT22;39319;52.944;5.928;2023-08-20T13:59:38;30.20;81.40
53422;DHT22;39319;52.944;5.928;2023-08-20T14:02:04;30.20;81.00
53422;DHT22;39319;52.944;5.928;2023-08-20T14:04:30;30.20;79.70
53422;DHT22;39319;52.944;5.928;2023-08-20T14:06:56;30.10;80.20
53422;DHT22;39319;52.944;5.928;2023-08-20T14:09:22;30.10;81.20
53422;DHT22;39319;52.944;5.928;2023-08-20T14:11:47;30.10;81.30
53422;DHT22;39319;52.944;5.928;2023-08-20T14:14:16;30.20;80.60
53422;DHT22;39319;52.944;5.928;2023-08-20T14:16:41;30.20;80.00
53422;DHT22;39319;52.944;5.928;2023-08-20T14:19:07;30.20;81.40
53422;DHT22;39319;52.944;5.928;2023-08-20T14:21:33;30.20;80.80
53422;DHT22;39319;52.944;5.928;2023-08-20T14:23:58;30.20;79.60
53422;DHT22;39319;52.944;5.928;2023-08-20T14:26:24;30.20;80.90
53422;DHT22;39319;52.944;5.928;2023-08-20T14:28:50;30.30;80.60
53422;DHT22;39319;52.944;5.928;2023-08-20T14:31:16;30.50;80.30
53422;DHT22;39319;52.944;5.928;2023-08-20T14:33:42;30.40;79.50
53422;DHT22;39319;52.944;5.928;2023-08-20T14:36:08;30.50;79.20
53422;DHT22;39319;52.944;5.928;2023-08-20T14:38:34;30.50;79.70
53422;DHT22;39319;52.944;5.928;2023-08-20T14:41:03;30.60;79.20
53422;DHT22;39319;52.944;5.928;2023-08-20T14:43:29;30.50;78.70
53422;DHT22;39319;52.944;5.928;2023-08-20T14:46:00;30.40;79.30
53422;DHT22;39319;52.944;5.928;2023-08-20T14:48:26;30.50;78.10
53422;DHT22;39319;52.944;5.928;2023-08-20T14:50:53;30.50;79.30
53422;DHT22;39319;52.944;5.928;2023-08-20T14:53:19;30.40;79.70
53422;DHT22;39319;52.944;5.928;2023-08-20T14:55:45;30.40;79.60
53422;DHT22;39319;52.944;5.928;2023-08-20T14:58:11;30.20;79.10
53422;DHT22;39319;52.944;5.928;2023-08-20T15:00:37;30.00;79.80
53422;DHT22;39319;52.944;5.928;2023-08-20T15:03:03;29.80;79.90
53422;DHT22;39319;52.944;5.928;2023-08-20T15:05:30;29.70;80.60
53422;DHT22;39319;52.944;5.928;2023-08-20T15:07:56;29.60;81.00
53422;DHT22;39319;52.944;5.928;2023-08-20T15:10:22;29.60;80.30
53422;DHT22;39319;52.944;5.928;2023-08-20T15:12:47;29.50;80.90
53422;DHT22;39319;52.944;5.928;2023-08-20T15:15:13;29.60;80.90
53422;DHT22;39319;52.944;5.928;2023-08-20T15:17:40;29.40;81.60
53422;DHT22;39319;52.944;5.928;2023-08-20T15:20:06;29.30;81.50
53422;DHT22;39319;52.944;5.928;2023-08-20T15:22:36;29.20;81.30
53422;DHT22;39319;52.944;5.928;2023-08-20T15:25:02;29.20;81.70
53422;DHT22;39319;52.944;5.928;2023-08-20T15:27:33;29.20;81.90
53422;DHT22;39319;52.944;5.928;2023-08-20T15:30:00;29.40;81.60
53422;DHT22;39319;52.944;5.928;2023-08-20T15:32:27;29.50;80.80
53422;DHT22;39319;52.944;5.928;2023-08-20T15:34:54;29.50;80.90
53422;DHT22;39319;52.944;5.928;2023-08-20T15:37:19;29.40;81.80
53422;DHT22;39319;52.944;5.928;2023-08-20T15:39:45;29.40;81.10